createdAt,value
2019-02-17T06:47:40.971Z,12.00
2019-02-17T06:48:40.952Z,15.90
2019-02-17T06:49:40.928Z,15.80
2019-02-17T06:50:40.935Z,16.30
2019-02-17T06:51:40.909Z,16.00
2019-02-17T06:52:40.897Z,16.10
2019-02-17T06:53:40.901Z,15.60
2019-02-17T06:54:40.883Z,15.50
2019-02-17T06:55:40.884Z,14.90
2019-02-17T06:56:40.866Z,14.30
2019-02-17T06:57:40.844Z,14.60
2019-02-17T06:58:40.832Z,15.20
2019-02-17T06:59:40.826Z,15.20
2019-02-17T07:00:40.845Z,14.70
2019-02-17T07:01:40.801Z,15.50
2019-02-17T07:02:40.791Z,15.20
2019-02-17T07:03:40.839Z,16.00
2019-02-17T07:04:40.786Z,15.30
2019-02-17T07:05:40.779Z,15.60
2019-02-17T07:06:40.781Z,15.20
2019-02-17T07:07:40.738Z,15.50
2019-02-17T07:08:40.736Z,15.90
2019-02-17T07:09:40.716Z,15.30
2019-02-17T07:10:40.708Z,15.20
2019-02-17T07:11:40.721Z,15.90
2019-02-17T07:12:42.626Z,15.10
2019-02-17T07:13:40.672Z,14.70
2019-02-17T07:14:40.668Z,15.00
2019-02-17T07:15:40.652Z,15.00
2019-02-17T07:16:40.658Z,15.70
2019-02-17T07:17:40.632Z,15.60
2019-02-17T07:18:40.619Z,15.20
2019-02-17T07:19:40.611Z,15.00
2019-02-17T07:20:40.598Z,14.30
2019-02-17T07:21:40.616Z,15.00
2019-02-17T07:22:40.576Z,15.70
2019-02-17T07:23:40.574Z,15.30
2019-02-17T07:24:40.557Z,15.40
2019-02-17T07:25:40.557Z,15.30
2019-02-17T07:26:40.556Z,15.00
2019-02-17T07:27:40.526Z,15.30
2019-02-17T07:28:40.524Z,15.30
2019-02-17T07:29:40.510Z,15.10
2019-02-17T07:30:40.507Z,15.80
2019-02-17T07:31:40.545Z,15.90
2019-02-17T07:32:40.476Z,15.90
2019-02-17T07:33:40.466Z,16.10
2019-02-17T07:34:40.456Z,26.60
2019-02-17T07:35:40.447Z,15.90
2019-02-17T07:36:40.452Z,15.10
2019-02-17T07:38:34.385Z,13.90
2019-02-17T07:39:34.371Z,14.20
2019-02-17T07:40:34.365Z,14.60
2019-02-17T07:41:34.389Z,15.20
2019-02-17T07:42:34.357Z,15.40
2019-02-17T07:43:34.331Z,15.30
2019-02-17T07:44:34.321Z,14.90
2019-02-17T07:45:34.309Z,15.70
2019-02-17T07:46:34.304Z,15.50
2019-02-17T07:47:34.306Z,15.40
2019-02-17T07:48:34.280Z,14.50
2019-02-17T07:49:34.302Z,14.50
2019-02-17T07:50:34.256Z,14.90
2019-02-17T07:51:34.254Z,14.10
2019-02-17T07:52:34.437Z,14.40
2019-02-17T07:53:34.225Z,15.40
2019-02-17T07:54:34.214Z,16.20
2019-02-17T07:55:34.202Z,14.90
2019-02-17T07:56:34.198Z,15.00
2019-02-17T07:57:34.210Z,15.40
2019-02-17T07:58:34.174Z,15.10
2019-02-17T07:59:34.168Z,15.50
2019-02-17T08:00:34.151Z,15.10
2019-02-17T08:01:34.138Z,14.70
2019-02-17T08:02:34.160Z,14.20
2019-02-17T08:03:34.119Z,14.70
2019-02-17T08:04:34.138Z,15.30
2019-02-17T08:05:34.113Z,14.30
2019-02-17T08:06:34.105Z,14.30
2019-02-17T08:07:34.100Z,14.80
2019-02-17T08:08:34.081Z,15.00
2019-02-17T08:09:34.056Z,15.10
2019-02-17T08:10:34.045Z,14.00
2019-02-17T08:11:34.034Z,14.60
2019-02-17T08:12:34.043Z,14.50
2019-02-17T08:13:34.014Z,15.40
2019-02-17T08:14:34.006Z,15.20
2019-02-17T08:15:34.002Z,14.40
2019-02-17T08:16:33.995Z,13.90
2019-02-17T08:17:33.997Z,14.80
2019-02-17T08:18:33.963Z,15.00
2019-02-17T08:19:33.956Z,15.30
2019-02-17T08:20:36.386Z,14.80
2019-02-17T08:21:33.938Z,14.60
2019-02-17T08:22:33.966Z,14.80
2019-02-17T08:23:33.914Z,15.00
2019-02-17T08:24:33.902Z,17.10
2019-02-17T08:25:33.899Z,21.50
2019-02-17T08:26:33.880Z,16.20
2019-02-17T08:27:33.871Z,15.50
2019-02-17T08:28:33.898Z,15.20
2019-02-17T08:29:33.849Z,14.30
2019-02-17T08:30:33.840Z,14.40
2019-02-17T08:31:33.834Z,15.00
2019-02-17T08:32:33.824Z,14.80
2019-02-17T08:33:33.831Z,15.30
2019-02-17T08:34:33.806Z,15.10
2019-02-17T08:35:33.816Z,14.90
2019-02-17T08:36:33.779Z,14.60
2019-02-17T08:37:33.773Z,15.30
2019-02-17T08:38:33.779Z,14.60
2019-02-17T08:39:33.749Z,14.90
2019-02-17T08:40:33.741Z,14.60
2019-02-17T08:41:33.726Z,15.40
2019-02-17T08:42:33.732Z,14.50
2019-02-17T08:43:33.729Z,14.20
2019-02-17T08:44:33.695Z,14.30
2019-02-17T08:45:33.687Z,14.90
2019-02-17T08:46:33.673Z,14.70
2019-02-17T08:47:33.662Z,14.90
2019-02-17T08:48:33.671Z,14.50
2019-02-17T08:49:33.661Z,14.80
2019-02-17T08:50:33.629Z,15.50
2019-02-17T08:51:33.620Z,13.80
2019-02-17T08:52:33.606Z,14.70
2019-02-17T08:53:33.614Z,15.10
2019-02-17T08:54:33.586Z,16.30
2019-02-17T08:55:33.645Z,15.20
2019-02-17T08:56:33.567Z,20.40
2019-02-17T08:57:33.559Z,24.40
2019-02-17T08:58:33.573Z,16.70
2019-02-17T08:59:33.532Z,16.00
2019-02-17T09:00:33.520Z,15.90
2019-02-17T09:01:33.513Z,14.90
2019-02-17T09:02:33.500Z,15.70
2019-02-17T09:03:33.516Z,15.60
2019-02-17T09:04:33.480Z,15.60
2019-02-17T09:05:43.644Z,15.70
2019-02-17T09:06:34.467Z,16.60
2019-02-17T09:07:33.455Z,15.60
2019-02-17T09:08:33.464Z,15.10
2019-02-17T09:09:33.435Z,15.10
2019-02-17T09:10:33.417Z,15.80
2019-02-17T09:11:33.408Z,15.80
2019-02-17T09:12:33.392Z,15.90
2019-02-17T09:13:33.413Z,15.80
2019-02-17T09:14:33.377Z,15.90
2019-02-17T09:15:33.365Z,14.90
2019-02-17T09:16:33.349Z,16.40
2019-02-17T09:17:33.335Z,15.90
2019-02-17T09:18:33.337Z,15.10
2019-02-17T09:19:33.330Z,14.90
2019-02-17T09:20:33.305Z,15.50
2019-02-17T09:21:33.292Z,15.80
2019-02-17T09:22:33.282Z,14.00
2019-02-17T09:23:33.271Z,15.50
2019-02-17T09:24:33.284Z,16.10
2019-02-17T09:25:33.249Z,15.20
2019-02-17T09:26:33.238Z,16.20
2019-02-17T09:27:33.225Z,16.00
2019-02-17T09:28:33.219Z,15.60
2019-02-17T09:29:33.224Z,15.10
2019-02-17T09:30:33.207Z,15.70
2019-02-17T09:31:33.180Z,14.40
2019-02-17T09:32:33.170Z,13.80
2019-02-17T09:33:33.159Z,14.10
2019-02-17T09:34:33.166Z,14.20
2019-02-17T09:35:33.137Z,14.10
2019-02-17T09:36:33.138Z,13.40
2019-02-17T09:37:33.117Z,13.10
2019-02-17T09:38:33.113Z,12.90
2019-02-17T09:39:33.116Z,12.20
2019-02-17T09:40:33.086Z,13.20
2019-02-17T09:41:33.073Z,13.10
2019-02-17T09:42:33.079Z,13.10
2019-02-17T09:43:33.054Z,12.00
2019-02-17T09:44:33.100Z,12.50
2019-02-17T09:45:33.033Z,12.20
2019-02-17T09:46:33.072Z,12.50
2019-02-17T09:47:33.011Z,12.80
2019-02-17T09:48:33.010Z,12.90
2019-02-17T09:49:33.008Z,12.70
2019-02-17T09:50:32.977Z,12.30
2019-02-17T09:51:32.968Z,11.90
2019-02-17T09:52:32.959Z,12.20
2019-02-17T09:53:32.943Z,11.80
2019-02-17T09:54:32.958Z,11.40
2019-02-17T09:55:32.924Z,12.20
2019-02-17T09:56:32.911Z,11.40
2019-02-17T09:57:32.904Z,11.80
2019-02-17T09:58:32.894Z,11.80
2019-02-17T09:59:32.901Z,12.50
2019-02-17T10:00:32.885Z,11.90
2019-02-17T10:01:32.858Z,11.80
2019-02-17T10:02:32.847Z,11.60
2019-02-17T10:03:32.836Z,10.70
2019-02-17T10:04:32.844Z,12.20
2019-02-17T10:05:32.820Z,12.60
2019-02-17T10:06:32.819Z,12.40
2019-02-17T10:07:32.796Z,11.60
2019-02-17T10:08:32.785Z,11.80
2019-02-17T10:09:32.799Z,12.00
2019-02-17T10:10:32.766Z,11.80
2019-02-17T10:11:32.755Z,12.20
2019-02-17T10:12:32.745Z,12.70
2019-02-17T10:13:32.752Z,11.20
2019-02-17T10:14:32.718Z,12.30
2019-02-17T10:15:32.728Z,11.50
2019-02-17T10:16:32.701Z,11.90
2019-02-17T10:17:32.688Z,12.10
2019-02-17T10:18:32.675Z,12.10
2019-02-17T10:19:32.663Z,12.10
2019-02-17T10:20:32.681Z,12.20
2019-02-17T10:21:32.647Z,12.70
2019-02-17T10:22:32.629Z,12.20
2019-02-17T10:23:32.630Z,12.50
2019-02-17T10:24:32.608Z,12.20
2019-02-17T10:25:32.639Z,12.80
2019-02-17T10:26:32.612Z,13.30
2019-02-17T10:27:32.581Z,12.40
2019-02-17T10:28:41.842Z,20.10
2019-02-17T10:29:33.553Z,13.90
2019-02-17T10:30:32.562Z,12.80
2019-02-17T10:31:32.541Z,12.10
2019-02-17T10:32:38.377Z,12.70
2019-02-17T10:33:33.512Z,12.30
2019-02-17T10:34:32.505Z,13.20
2019-02-17T10:35:32.514Z,12.00
2019-02-17T10:36:32.480Z,13.90
2019-02-17T10:37:32.493Z,13.20
2019-02-17T10:38:32.462Z,13.10
2019-02-17T10:39:32.453Z,12.50
2019-02-17T10:40:32.456Z,12.30
2019-02-17T10:41:32.431Z,12.50
2019-02-17T10:42:32.417Z,11.90
2019-02-17T10:43:32.413Z,12.40
2019-02-17T10:44:32.399Z,12.20
2019-02-17T10:45:32.411Z,12.00
2019-02-17T10:46:32.380Z,11.70
2019-02-17T10:47:32.365Z,12.10
2019-02-17T10:48:32.353Z,12.60
2019-02-17T10:49:32.355Z,12.90
2019-02-17T10:50:32.350Z,12.20
2019-02-17T10:51:32.322Z,11.90
2019-02-17T10:52:32.314Z,12.00
2019-02-17T10:53:32.300Z,12.40
2019-02-17T10:54:32.290Z,12.10
2019-02-17T10:55:32.295Z,12.40
2019-02-17T10:56:32.278Z,11.90
2019-02-17T10:57:32.257Z,11.70
2019-02-17T10:58:32.251Z,12.20
2019-02-17T10:59:32.236Z,11.70
2019-02-17T11:00:32.241Z,11.50
2019-02-17T11:01:32.216Z,11.40
2019-02-17T11:02:32.212Z,12.00
2019-02-17T11:03:32.196Z,12.00
2019-02-17T11:04:32.189Z,11.90
2019-02-17T11:05:32.192Z,12.10
2019-02-17T11:06:32.163Z,11.50
2019-02-17T11:07:32.153Z,11.60
2019-02-17T11:08:32.155Z,12.00
2019-02-17T11:09:32.132Z,11.70
2019-02-17T11:10:32.139Z,15.50
2019-02-17T11:11:32.110Z,13.60
2019-02-17T11:12:32.101Z,11.20
2019-02-17T11:13:32.094Z,13.90
2019-02-17T11:14:32.092Z,11.30
2019-02-17T11:15:32.087Z,11.00
2019-02-17T11:16:32.059Z,11.40
2019-02-17T11:17:32.049Z,11.20
2019-02-17T11:18:32.037Z,11.10
2019-02-17T11:19:32.027Z,11.10
2019-02-17T11:20:32.041Z,11.20
2019-02-17T11:21:32.016Z,11.00
2019-02-17T11:22:31.995Z,10.60
2019-02-17T11:23:31.985Z,11.20
2019-02-17T11:24:31.974Z,11.20
2019-02-17T11:25:31.987Z,11.00
2019-02-17T11:26:31.965Z,11.00
2019-02-17T11:27:31.942Z,11.30
2019-02-17T11:28:31.942Z,11.00
2019-02-17T11:29:31.922Z,11.20
2019-02-17T11:30:31.930Z,10.90
2019-02-17T11:31:31.902Z,10.70
2019-02-17T11:32:32.409Z,10.50
2019-02-17T11:33:31.881Z,11.20
2019-02-17T11:34:31.870Z,10.70
2019-02-17T11:35:31.892Z,12.10
2019-02-17T11:36:31.845Z,11.10
2019-02-17T11:37:31.833Z,11.00
2019-02-17T11:38:31.828Z,10.50
2019-02-17T11:39:31.813Z,11.80
2019-02-17T11:40:31.806Z,10.90
2019-02-17T11:41:31.810Z,11.00
2019-02-17T11:42:31.781Z,11.30
2019-02-17T11:43:31.770Z,11.10
2019-02-17T11:44:32.058Z,10.70
2019-02-17T11:45:31.767Z,11.10
2019-02-17T11:46:31.742Z,10.60
2019-02-17T11:47:31.729Z,11.00
2019-02-17T11:48:31.717Z,11.40
2019-02-17T11:49:31.709Z,10.50
2019-02-17T11:50:31.725Z,10.50
2019-02-17T11:51:31.688Z,10.40
2019-02-17T11:52:31.677Z,10.50
2019-02-17T11:53:31.665Z,10.40
2019-02-17T11:54:31.655Z,10.50
2019-02-17T11:55:31.660Z,10.30
2019-02-17T11:56:31.648Z,10.10
2019-02-17T11:57:31.623Z,11.30
2019-02-17T11:58:31.612Z,10.30
2019-02-17T11:59:31.604Z,10.20
2019-02-17T12:00:31.614Z,9.90
2019-02-17T12:01:31.581Z,10.30
2019-02-17T12:02:31.581Z,10.50
2019-02-17T12:03:31.563Z,10.10
2019-02-17T12:04:31.554Z,10.20
2019-02-17T12:05:31.555Z,10.30
2019-02-17T12:06:31.529Z,9.90
2019-02-17T12:07:31.523Z,9.90
2019-02-17T12:08:31.518Z,10.00
2019-02-17T12:09:31.546Z,9.80
2019-02-17T12:10:31.514Z,9.70
2019-02-17T12:11:31.479Z,9.70
2019-02-17T12:12:31.466Z,9.40
2019-02-17T12:13:31.456Z,9.90
2019-02-17T12:14:31.456Z,10.00
2019-02-17T12:15:31.435Z,9.70
2019-02-17T12:16:37.015Z,9.80
2019-02-17T12:17:32.411Z,9.20
2019-02-17T12:18:31.403Z,9.70
2019-02-17T12:19:31.393Z,9.70
2019-02-17T12:20:31.392Z,9.80
2019-02-17T12:21:31.391Z,9.10
2019-02-17T12:22:31.362Z,9.40
2019-02-17T12:23:31.355Z,11.40
2019-02-17T12:24:31.340Z,12.80
2019-02-17T12:25:31.330Z,9.70
2019-02-17T12:26:31.345Z,12.80
2019-02-17T12:27:31.308Z,9.60
2019-02-17T12:28:31.298Z,9.10
2019-02-17T12:29:31.298Z,9.40
2019-02-17T12:30:31.285Z,9.20
2019-02-17T12:31:31.284Z,8.60
2019-02-17T12:32:31.267Z,9.60
2019-02-17T12:33:31.247Z,9.80
2019-02-17T12:34:31.236Z,8.90
2019-02-17T12:35:31.231Z,9.20
2019-02-17T12:36:31.235Z,8.70
2019-02-17T12:37:31.208Z,8.80
2019-02-17T12:38:31.203Z,9.10
2019-02-17T12:39:31.183Z,8.90
2019-02-17T12:40:31.178Z,9.30
2019-02-17T12:41:31.182Z,9.60
2019-02-17T12:42:31.159Z,8.90
2019-02-17T12:43:31.142Z,9.10
2019-02-17T12:44:31.149Z,8.50
2019-02-17T12:45:31.122Z,8.30
2019-02-17T12:46:31.179Z,8.60
2019-02-17T12:47:31.104Z,8.30
2019-02-17T12:48:31.095Z,9.20
2019-02-17T12:49:31.079Z,11.90
2019-02-17T12:50:31.078Z,12.70
2019-02-17T12:51:31.057Z,9.70
2019-02-17T12:52:31.098Z,8.70
2019-02-17T12:53:31.050Z,8.20
2019-02-17T12:54:31.037Z,8.10
2019-02-17T12:55:31.027Z,8.50
2019-02-17T12:56:31.030Z,8.20
2019-02-17T12:57:31.052Z,8.10
2019-02-17T12:58:30.996Z,8.00
2019-02-17T12:59:30.975Z,8.10
2019-02-17T13:00:30.961Z,7.40
2019-02-17T13:01:30.948Z,8.30
2019-02-17T13:02:30.955Z,7.70
2019-02-17T13:03:30.930Z,7.60
2019-02-17T13:04:30.929Z,8.00
2019-02-17T13:05:30.907Z,8.00
2019-02-17T13:06:30.897Z,7.70
2019-02-17T13:07:30.907Z,7.60
2019-02-17T13:08:30.877Z,7.70
2019-02-17T13:09:30.863Z,7.40
2019-02-17T13:10:30.857Z,7.40
2019-02-17T13:11:30.860Z,6.90
2019-02-17T13:12:30.853Z,7.50
2019-02-17T13:13:30.823Z,7.70
2019-02-17T13:14:30.812Z,7.10
2019-02-17T13:15:30.803Z,7.10
2019-02-17T13:16:30.793Z,7.70
2019-02-17T13:17:30.817Z,7.50
2019-02-17T13:18:30.782Z,7.30
2019-02-17T13:19:30.760Z,6.90
2019-02-17T13:20:30.748Z,7.10
2019-02-17T13:21:30.747Z,7.50
2019-02-17T13:22:30.779Z,7.60
2019-02-17T13:23:30.725Z,7.10
2019-02-17T13:24:30.723Z,7.50
2019-02-17T13:25:30.698Z,7.20
2019-02-17T13:26:30.687Z,7.40
2019-02-17T13:27:30.674Z,7.30
2019-02-17T13:28:30.678Z,7.80
2019-02-17T13:29:30.655Z,6.40
2019-02-17T13:30:30.668Z,7.50
2019-02-17T13:31:30.629Z,7.30
2019-02-17T13:32:30.619Z,6.70
2019-02-17T13:33:38.805Z,7.70
2019-02-17T13:34:31.612Z,7.10
2019-02-17T13:35:30.592Z,7.10
2019-02-17T13:36:30.576Z,6.90
2019-02-17T13:37:30.579Z,6.90
2019-02-17T13:38:30.575Z,7.20
2019-02-17T13:39:30.546Z,7.20
2019-02-17T13:40:30.536Z,6.90
2019-02-17T13:41:30.524Z,6.90
2019-02-17T13:42:30.515Z,6.90
2019-02-17T13:43:30.552Z,6.90
2019-02-17T13:44:30.494Z,7.10
2019-02-17T13:45:30.480Z,7.40
2019-02-17T13:46:30.474Z,7.20
2019-02-17T13:47:30.459Z,7.10
2019-02-17T13:48:30.471Z,7.20
2019-02-17T13:49:30.436Z,17.20
2019-02-17T13:50:30.428Z,6.90
2019-02-17T13:51:30.423Z,7.00
2019-02-17T13:52:32.026Z,6.70
2019-02-17T13:53:30.416Z,6.30
2019-02-17T13:54:30.384Z,6.90
2019-02-17T13:55:30.372Z,6.60
2019-02-17T13:56:30.364Z,6.50
2019-02-17T13:57:30.374Z,6.90
2019-02-17T13:58:30.356Z,6.30
2019-02-17T13:59:30.331Z,6.80
2019-02-17T14:00:30.326Z,6.60
2019-02-17T14:01:30.307Z,6.20
2019-02-17T14:02:30.300Z,8.80
2019-02-17T14:03:30.303Z,6.50
2019-02-17T14:04:30.293Z,6.20
2019-02-17T14:05:30.266Z,6.30
2019-02-17T14:06:30.257Z,6.30
2019-02-17T14:07:30.243Z,6.40
2019-02-17T14:08:31.328Z,6.60
2019-02-17T14:09:30.225Z,6.30
2019-02-17T14:10:30.220Z,6.10
2019-02-17T14:11:30.207Z,6.10
2019-02-17T14:12:30.190Z,5.50
2019-02-17T14:13:30.195Z,5.60
2019-02-17T14:14:30.169Z,5.70
2019-02-17T14:15:30.157Z,5.80
2019-02-17T14:16:30.164Z,6.10
2019-02-17T14:17:30.143Z,5.70
2019-02-17T14:18:30.147Z,5.60
2019-02-17T14:19:30.113Z,5.70
2019-02-17T14:20:30.104Z,6.00
2019-02-17T14:21:30.095Z,5.70
2019-02-17T14:22:30.107Z,6.50
2019-02-17T14:23:30.088Z,5.50
2019-02-17T14:24:30.063Z,6.00
2019-02-17T14:25:30.050Z,6.20
2019-02-17T14:26:30.041Z,5.80
2019-02-17T14:27:30.029Z,5.90
2019-02-17T14:28:30.078Z,5.60
2019-02-17T14:29:30.013Z,5.60
2019-02-17T14:30:30.549Z,5.70
2019-02-17T14:31:29.989Z,5.70
2019-02-17T14:32:29.976Z,5.50
2019-02-17T14:33:29.966Z,5.80
2019-02-17T14:34:29.987Z,6.10
2019-02-17T14:35:29.946Z,6.00
2019-02-17T14:36:29.934Z,5.90
2019-02-17T14:37:29.921Z,6.10
2019-02-17T14:38:29.912Z,6.20
2019-02-17T14:39:29.933Z,5.90
2019-02-17T14:40:29.892Z,6.20
2019-02-17T14:41:29.902Z,5.70
2019-02-17T14:42:29.868Z,5.80
2019-02-17T14:43:29.858Z,5.90
2019-02-17T14:44:29.864Z,6.90
2019-02-17T14:45:29.837Z,6.30
2019-02-17T14:46:29.827Z,5.80
2019-02-17T14:47:29.841Z,6.30
2019-02-17T14:48:29.805Z,6.00
2019-02-17T14:49:29.809Z,5.90
2019-02-17T14:50:29.783Z,5.60
2019-02-17T14:51:29.777Z,5.90
2019-02-17T14:52:29.763Z,5.50
2019-02-17T14:53:29.774Z,5.80
2019-02-17T14:54:29.764Z,6.20
2019-02-17T14:55:29.728Z,6.10
2019-02-17T14:56:29.723Z,5.70
2019-02-17T14:57:29.712Z,6.10
2019-02-17T14:58:29.698Z,5.70
2019-02-17T14:59:29.706Z,5.80
2019-02-17T15:00:29.676Z,6.50
2019-02-17T15:01:29.674Z,6.10
2019-02-17T15:02:29.652Z,6.20
2019-02-17T15:03:29.642Z,6.20
2019-02-17T15:04:29.683Z,6.70
2019-02-17T15:05:29.630Z,6.40
2019-02-17T15:06:29.621Z,6.00
2019-02-17T15:07:29.602Z,5.90
2019-02-17T15:08:29.598Z,5.90
2019-02-17T15:09:29.579Z,5.40
2019-02-17T15:10:29.589Z,6.70
2019-02-17T15:11:29.561Z,6.40
2019-02-17T15:12:29.547Z,6.00
2019-02-17T15:13:29.535Z,5.90
2019-02-17T15:14:29.547Z,5.60
2019-02-17T15:15:29.532Z,5.90
2019-02-17T15:16:29.508Z,5.90
2019-02-17T15:17:29.493Z,6.10
2019-02-17T15:18:29.485Z,6.20
2019-02-17T15:19:29.474Z,6.10
2019-02-17T15:20:29.488Z,6.20
2019-02-17T15:21:29.450Z,6.40
2019-02-17T15:22:29.451Z,5.70
2019-02-17T15:23:29.428Z,5.70
2019-02-17T15:24:29.417Z,5.90
2019-02-17T15:25:29.424Z,6.00
2019-02-17T15:26:29.408Z,6.40
2019-02-17T15:27:29.386Z,6.10
2019-02-17T15:28:29.374Z,5.80
2019-02-17T15:29:31.635Z,5.90
2019-02-17T15:30:29.370Z,6.50
2019-02-17T15:31:30.900Z,6.30
2019-02-17T15:32:29.342Z,6.00
2019-02-17T15:33:29.325Z,5.70
2019-02-17T15:34:29.311Z,6.90
2019-02-17T15:35:29.318Z,6.10
2019-02-17T15:36:29.289Z,5.50
2019-02-17T15:37:29.279Z,6.50
2019-02-17T15:38:29.280Z,6.50
2019-02-17T15:39:29.259Z,5.80
2019-02-17T15:40:29.265Z,5.60
2019-02-17T15:41:29.236Z,6.40
2019-02-17T15:42:29.226Z,6.10
2019-02-17T15:43:29.213Z,6.00
2019-02-17T15:44:29.210Z,6.10
2019-02-17T15:45:29.242Z,5.90
2019-02-17T15:46:29.184Z,5.90
2019-02-17T15:47:29.178Z,5.80
2019-02-17T15:48:29.160Z,6.00
2019-02-17T15:49:29.155Z,5.90
2019-02-17T15:50:29.140Z,6.10
2019-02-17T15:51:29.159Z,6.10
2019-02-17T15:52:30.174Z,5.60
2019-02-17T15:53:31.006Z,5.60
2019-02-17T15:54:29.097Z,6.00
2019-02-17T15:55:29.083Z,6.10
2019-02-17T15:56:29.091Z,6.00
2019-02-17T15:57:29.070Z,5.80
2019-02-17T15:58:29.074Z,6.00
2019-02-17T15:59:29.044Z,5.40
2019-02-17T16:00:29.033Z,5.50
2019-02-17T16:01:29.040Z,6.00
2019-02-17T16:02:29.010Z,5.80
2019-02-17T16:03:28.998Z,5.60
2019-02-17T16:04:29.006Z,6.20
2019-02-17T16:05:28.978Z,6.10
2019-02-17T16:06:28.989Z,6.30
2019-02-17T16:07:28.957Z,6.00
2019-02-17T16:08:28.945Z,5.50
2019-02-17T16:09:28.936Z,6.00
2019-02-17T16:10:28.942Z,5.40
2019-02-17T16:11:28.932Z,6.10
2019-02-17T16:12:28.903Z,6.10
2019-02-17T16:13:28.891Z,5.70
2019-02-17T16:14:28.881Z,5.70
2019-02-17T16:15:28.872Z,5.70
2019-02-17T16:16:28.884Z,5.80
2019-02-17T16:17:28.847Z,5.80
2019-02-17T16:18:28.839Z,5.20
2019-02-17T16:19:28.824Z,5.80
2019-02-17T16:20:28.815Z,5.80
2019-02-17T16:21:28.836Z,5.80
2019-02-17T16:22:28.805Z,5.70
2019-02-17T16:23:28.793Z,5.40
2019-02-17T16:24:28.774Z,5.40
2019-02-17T16:25:28.761Z,5.60
2019-02-17T16:26:28.753Z,5.50
2019-02-17T16:27:28.759Z,6.00
2019-02-17T16:28:28.733Z,5.70
2019-02-17T16:29:28.735Z,5.60
2019-02-17T16:30:28.708Z,5.90
2019-02-17T16:31:28.699Z,5.90
2019-02-17T16:32:28.709Z,5.10
2019-02-17T16:33:28.679Z,5.50
2019-02-17T16:34:37.792Z,5.30
2019-02-17T16:35:29.663Z,5.80
2019-02-17T16:36:28.645Z,5.50
2019-02-17T16:37:28.649Z,6.00
2019-02-17T16:38:28.621Z,5.70
2019-02-17T16:39:28.612Z,6.10
2019-02-17T16:40:28.610Z,5.50
2019-02-17T16:41:28.614Z,5.80
2019-02-17T16:42:28.604Z,5.80
2019-02-17T16:43:28.569Z,5.70
2019-02-17T16:44:28.558Z,5.80
2019-02-17T16:45:28.551Z,5.60
2019-02-17T16:46:28.548Z,5.80
2019-02-17T16:47:28.557Z,5.80
2019-02-17T16:48:28.514Z,5.10
2019-02-17T16:49:28.502Z,5.40
2019-02-17T16:50:28.493Z,5.50
2019-02-17T16:51:28.481Z,5.70
2019-02-17T16:52:28.493Z,5.40
2019-02-17T16:53:28.469Z,5.40
2019-02-17T16:54:28.453Z,5.70
2019-02-17T16:55:28.444Z,5.20
2019-02-17T16:56:28.430Z,5.50
2019-02-17T16:57:28.433Z,5.80
2019-02-17T16:58:28.408Z,5.60
2019-02-17T16:59:28.408Z,5.50
2019-02-17T17:00:28.387Z,5.60
2019-02-17T17:01:28.374Z,6.90
2019-02-17T17:02:28.390Z,5.30
2019-02-17T17:03:28.352Z,5.20
2019-02-17T17:04:28.344Z,5.10
2019-02-17T17:05:28.329Z,5.20
2019-02-17T17:06:28.323Z,5.20
2019-02-17T17:07:28.310Z,5.10
2019-02-17T17:08:28.334Z,5.80
2019-02-17T17:09:28.288Z,5.70
2019-02-17T17:10:28.281Z,5.10
2019-02-17T17:11:28.276Z,5.90
2019-02-17T17:12:28.256Z,5.70
2019-02-17T17:13:28.266Z,5.40
2019-02-17T17:14:28.238Z,5.70
2019-02-17T17:15:28.235Z,5.80
2019-02-17T17:16:28.214Z,5.40
2019-02-17T17:17:28.209Z,5.80
2019-02-17T17:18:28.212Z,5.80
2019-02-17T17:19:28.181Z,5.80
2019-02-17T17:20:28.176Z,6.20
2019-02-17T17:21:28.172Z,5.70
2019-02-17T17:22:28.152Z,5.70
2019-02-17T17:23:28.171Z,5.70
2019-02-17T17:24:28.125Z,5.80
2019-02-17T17:25:28.126Z,6.00
2019-02-17T17:26:28.109Z,5.90
2019-02-17T17:27:28.110Z,5.80
2019-02-17T17:28:28.103Z,5.50
2019-02-17T17:29:28.076Z,5.60
2019-02-17T17:30:28.086Z,5.60
2019-02-17T17:31:28.070Z,4.80
2019-02-17T17:32:28.040Z,5.20
2019-02-17T17:33:28.048Z,5.10
2019-02-17T17:34:28.022Z,5.50
2019-02-17T17:35:28.024Z,5.30
2019-02-17T17:36:27.996Z,5.00
2019-02-17T17:37:27.988Z,5.20
2019-02-17T17:38:27.992Z,4.90
2019-02-17T17:39:27.977Z,5.70
2019-02-17T17:40:27.971Z,5.20
2019-02-17T17:41:27.944Z,4.90
2019-02-17T17:42:27.933Z,5.10
2019-02-17T17:43:27.962Z,5.50
2019-02-17T17:44:27.910Z,5.70
2019-02-17T17:45:27.910Z,5.00
2019-02-17T17:46:27.932Z,4.90
2019-02-17T17:47:27.878Z,4.90
2019-02-17T17:48:27.886Z,5.30
2019-02-17T17:49:27.865Z,5.50
2019-02-17T17:50:27.850Z,5.00
2019-02-17T17:51:27.886Z,5.00
2019-02-17T17:52:27.827Z,5.70
2019-02-17T17:53:27.836Z,5.00
2019-02-17T17:54:27.803Z,5.10
2019-02-17T17:55:28.503Z,4.70
2019-02-17T17:56:27.782Z,5.00
2019-02-17T17:57:27.778Z,5.50
2019-02-17T17:58:27.785Z,5.10
2019-02-17T17:59:27.756Z,5.40
2019-02-17T18:00:27.739Z,5.10
2019-02-17T18:01:27.742Z,5.50
2019-02-17T18:02:27.721Z,5.00
2019-02-17T18:03:27.722Z,5.80
2019-02-17T18:04:27.703Z,5.50
2019-02-17T18:05:27.686Z,5.30
2019-02-17T18:06:27.678Z,6.20
2019-02-17T18:07:27.663Z,5.00
2019-02-17T18:08:27.677Z,5.70
2019-02-17T18:09:27.641Z,6.30
2019-02-17T18:10:27.643Z,5.30
2019-02-17T18:11:27.619Z,5.70
2019-02-17T18:12:27.610Z,6.10
2019-02-17T18:13:27.634Z,5.40
2019-02-17T18:14:27.596Z,5.90
2019-02-17T18:15:27.593Z,6.20
2019-02-17T18:16:27.569Z,6.10
2019-02-17T18:17:27.556Z,5.50
2019-02-17T18:18:27.543Z,5.70
2019-02-17T18:19:27.553Z,5.90
2019-02-17T18:20:27.529Z,5.20
2019-02-17T18:21:27.513Z,5.30
2019-02-17T18:22:27.503Z,5.80
2019-02-17T18:23:27.504Z,5.00
2019-02-17T18:24:27.504Z,5.60
2019-02-17T18:25:27.473Z,5.90
2019-02-17T18:26:27.471Z,5.30
2019-02-17T18:27:27.445Z,5.20
2019-02-17T18:28:27.435Z,5.90
2019-02-17T18:29:27.439Z,5.40
2019-02-17T18:30:27.435Z,5.20
2019-02-17T18:31:27.400Z,5.30
2019-02-17T18:32:27.404Z,5.60
2019-02-17T18:33:27.380Z,5.20
2019-02-17T18:34:27.392Z,5.20
2019-02-17T18:35:27.393Z,4.80
2019-02-17T18:36:27.354Z,5.10
2019-02-17T18:37:27.336Z,5.10
2019-02-17T18:38:27.332Z,5.50
2019-02-17T18:39:27.716Z,5.00
2019-02-17T18:40:27.318Z,5.00
2019-02-17T18:41:27.290Z,5.30
2019-02-17T18:42:27.280Z,5.40
2019-02-17T18:43:27.309Z,7.70
2019-02-17T18:44:27.325Z,7.00
2019-02-17T18:45:27.291Z,6.80
2019-02-17T18:46:27.265Z,5.50
2019-02-17T18:47:27.235Z,4.90
2019-02-17T18:48:27.222Z,4.80
2019-02-17T18:49:27.221Z,5.00
2019-02-17T18:50:27.190Z,5.20
2019-02-17T18:51:27.199Z,4.80
2019-02-17T18:52:27.168Z,4.90
2019-02-17T18:53:27.179Z,4.80
2019-02-17T18:54:27.162Z,5.10
2019-02-17T18:55:27.150Z,4.90
2019-02-17T18:56:27.146Z,5.00
2019-02-17T18:57:27.114Z,4.50
2019-02-17T18:58:27.107Z,5.00
2019-02-17T18:59:27.125Z,5.00
2019-02-17T19:00:27.085Z,4.80
2019-02-17T19:01:27.082Z,5.20
2019-02-17T19:02:27.067Z,4.80
2019-02-17T19:03:27.050Z,4.90
2019-02-17T19:04:27.104Z,4.50
2019-02-17T19:05:32.012Z,4.80
2019-02-17T19:06:28.031Z,9.90
2019-02-17T19:07:27.029Z,7.50
2019-02-17T19:08:27.001Z,4.80
2019-02-17T19:09:27.001Z,4.20
2019-02-17T19:10:26.993Z,4.50
2019-02-17T19:11:26.997Z,4.70
2019-02-17T19:12:26.960Z,5.00
2019-02-17T19:13:26.943Z,4.20
2019-02-17T19:14:26.927Z,5.20
2019-02-17T19:15:26.969Z,4.80
2019-02-17T19:16:26.920Z,4.40
2019-02-17T19:17:26.937Z,4.90
2019-02-17T19:18:26.906Z,4.40
2019-02-17T19:19:26.928Z,4.60
2019-02-17T19:20:26.937Z,5.00
2019-02-17T19:21:27.474Z,4.80
2019-02-17T19:22:26.867Z,5.20
2019-02-17T19:23:26.913Z,4.90
2019-02-17T19:24:26.837Z,4.60
2019-02-17T19:25:26.889Z,4.40
2019-02-17T19:26:26.809Z,4.50
2019-02-17T19:27:26.800Z,9.60
2019-02-17T19:28:26.791Z,11.80
2019-02-17T19:29:26.763Z,8.00
2019-02-17T19:30:26.791Z,5.70
2019-02-17T19:31:26.770Z,5.40
2019-02-17T19:32:26.756Z,5.60
2019-02-17T19:33:26.726Z,5.40
2019-02-17T19:34:26.716Z,5.50
2019-02-17T19:35:26.716Z,4.90
2019-02-17T19:36:26.692Z,5.30
2019-02-17T19:37:26.684Z,5.60
2019-02-17T19:38:26.680Z,5.10
2019-02-17T19:39:26.670Z,5.30
2019-02-17T19:40:26.696Z,5.40
2019-02-17T19:41:26.643Z,5.50
2019-02-17T19:42:26.640Z,5.50
2019-02-17T19:43:26.621Z,5.90
2019-02-17T19:44:26.598Z,5.00
2019-02-17T19:45:26.617Z,5.30
2019-02-17T19:46:26.591Z,5.40
2019-02-17T19:47:26.571Z,5.10
2019-02-17T19:48:26.558Z,5.20
2019-02-17T19:49:26.546Z,5.50
2019-02-17T19:50:26.566Z,5.10
2019-02-17T19:51:26.537Z,5.30
2019-02-17T19:52:26.534Z,5.10
2019-02-17T19:53:26.509Z,5.50
2019-02-17T19:54:26.498Z,5.10
2019-02-17T19:55:26.516Z,4.90